Time;durP1;ratioP1;P1;durP2;ratioP2;P2;SDS_P1;SDS_P2;PMS_P1;PMS_P2;Temp;Humidity;BMP_temperature;BMP_pressure;BME280_temperature;BME280_humidity;BME280_pressure;Samples;Min_cycle;Max_cycle;Signal;HPM_P1;HPM_P2
2021/10/16 00:00:39;;;;;;;8.10;6.10;;;10.80;99.10;;;;;;5055024;28;20423;-68
2021/10/16 00:03:04;;;;;;;8.10;5.13;;;10.80;99.00;;;;;;5054270;28;20170;-68
2021/10/16 00:05:30;;;;;;;7.53;6.07;;;10.80;98.90;;;;;;5054719;28;20464;-67
2021/10/16 00:07:56;;;;;;;5.70;5.20;;;10.70;98.80;;;;;;5054500;28;20188;-70
2021/10/16 00:10:22;;;;;;;7.10;6.37;;;10.70;98.60;;;;;;5054054;28;20657;-67
2021/10/16 00:12:48;;;;;;;8.20;7.07;;;10.70;98.50;;;;;;5054576;28;20412;-68
2021/10/16 00:15:14;;;;;;;6.27;5.73;;;10.60;98.60;;;;;;5054158;28;20853;-68
2021/10/16 00:17:40;;;;;;;13.30;7.00;;;10.70;98.50;;;;;;5054350;28;20193;-68
2021/10/16 00:20:07;;;;;;;7.70;6.97;;;10.60;98.60;;;;;;5053822;28;20430;-67
2021/10/16 00:22:33;;;;;;;7.60;6.90;;;10.60;98.90;;;;;;5054547;28;20187;-68
2021/10/16 00:24:59;;;;;;;8.73;7.33;;;10.70;99.30;;;;;;5053885;28;20490;-71
2021/10/16 00:27:25;;;;;;;7.70;6.77;;;10.60;99.40;;;;;;5054987;28;20810;-67
2021/10/16 00:29:51;;;;;;;7.30;6.43;;;10.70;99.10;;;;;;5053381;28;20176;-67
2021/10/16 00:32:16;;;;;;;7.20;6.60;;;10.60;99.00;;;;;;5053604;28;20180;-68
2021/10/16 00:34:42;;;;;;;9.10;5.90;;;10.60;99.40;;;;;;5054775;28;20267;-67
2021/10/16 00:37:08;;;;;;;7.00;6.40;;;10.60;99.30;;;;;;5053470;28;20178;-68
2021/10/16 00:39:33;;;;;;;8.30;6.40;;;10.60;99.10;;;;;;5053529;28;20190;-67
2021/10/16 00:41:59;;;;;;;8.33;6.87;;;10.60;98.90;;;;;;5053745;28;20179;-70
2021/10/16 00:44:26;;;;;;;8.50;7.80;;;10.60;98.60;;;;;;5053505;28;20229;-67
2021/10/16 00:46:56;;;;;;;6.73;6.23;;;10.50;98.30;;;;;;5053845;28;20258;-68
2021/10/16 00:49:23;;;;;;;7.27;6.70;;;10.50;98.40;;;;;;5052262;28;20921;-68
2021/10/16 00:51:49;;;;;;;7.10;6.50;;;10.40;98.50;;;;;;5054321;28;20751;-67
2021/10/16 00:54:16;;;;;;;8.50;6.60;;;10.40;98.40;;;;;;5051697;28;20836;-68
2021/10/16 00:56:43;;;;;;;8.73;6.60;;;10.40;98.50;;;;;;5053738;28;20893;-68
2021/10/16 00:59:10;;;;;;;6.80;6.30;;;10.40;98.70;;;;;;5051784;28;20408;-68
2021/10/16 01:01:37;;;;;;;7.20;6.50;;;10.40;98.80;;;;;;5053958;28;20417;-68
2021/10/16 01:04:04;;;;;;;7.40;6.90;;;10.40;98.80;;;;;;5051653;28;20425;-68
2021/10/16 01:06:30;;;;;;;9.27;7.53;;;10.40;98.70;;;;;;5053530;28;20461;-68
2021/10/16 01:08:57;;;;;;;9.70;6.10;;;10.40;98.40;;;;;;5053440;28;20517;-68
2021/10/16 01:11:44;;;;;;;7.00;6.30;;;10.40;98.40;;;;;;5052928;28;20559;-67
2021/10/16 01:14:12;;;;;;;8.20;6.27;;;10.30;98.10;;;;;;5052825;28;20613;-68
2021/10/16 01:16:40;;;;;;;10.50;6.60;;;10.30;97.90;;;;;;5053648;28;20415;-67
2021/10/16 01:19:09;;;;;;;6.10;5.67;;;10.20;98.00;;;;;;5052823;28;20416;-68
2021/10/16 01:21:40;;;;;;;8.40;5.43;;;10.20;97.90;;;;;;5053027;28;20437;-68
2021/10/16 01:24:07;;;;;;;6.47;5.67;;;10.20;98.20;;;;;;5052869;28;20432;-67
2021/10/16 01:26:34;;;;;;;7.40;5.70;;;10.20;98.50;;;;;;5053241;28;20457;-67
2021/10/16 01:29:00;;;;;;;7.97;5.87;;;10.20;98.60;;;;;;5053227;28;21028;-68
2021/10/16 01:31:26;;;;;;;6.10;5.47;;;10.10;98.60;;;;;;5052716;28;20413;-67
2021/10/16 01:33:53;;;;;;;6.00;5.40;;;10.10;98.40;;;;;;5053336;28;20929;-67
2021/10/16 01:36:19;;;;;;;5.80;5.20;;;10.10;98.20;;;;;;5051349;28;20919;-67
2021/10/16 01:38:45;;;;;;;6.10;5.60;;;10.10;98.20;;;;;;5053219;28;20869;-67
2021/10/16 01:41:11;;;;;;;6.20;5.60;;;10.10;98.30;;;;;;5052266;28;20417;-67
2021/10/16 01:43:37;;;;;;;6.03;5.53;;;10.10;98.10;;;;;;5051555;28;20426;-68
2021/10/16 01:46:03;;;;;;;5.90;5.33;;;10.00;97.90;;;;;;5049310;28;20241;-70
2021/10/16 01:48:28;;;;;;;5.80;5.30;;;10.00;98.00;;;;;;5050969;28;20970;-67
2021/10/16 01:50:55;;;;;;;5.60;5.20;;;10.00;98.00;;;;;;5052268;28;20498;-67
2021/10/16 01:53:21;;;;;;;7.60;6.50;;;10.00;98.10;;;;;;5052191;28;20204;-67
2021/10/16 01:55:47;;;;;;;9.50;6.57;;;10.00;98.20;;;;;;5052571;28;20429;-67
2021/10/16 01:58:15;;;;;;;6.17;5.57;;;10.00;98.10;;;;;;5052074;28;20425;-67
2021/10/16 02:00:44;;;;;;;6.27;5.63;;;10.00;98.30;;;;;;5052815;28;20468;-67
2021/10/16 02:03:10;;;;;;;7.80;6.00;;;10.00;98.20;;;;;;5051877;28;20495;-68
2021/10/16 02:05:44;;;;;;;6.37;5.90;;;10.00;98.40;;;;;;5051972;28;20496;-67
2021/10/16 02:08:10;;;;;;;8.63;6.50;;;9.90;98.70;;;;;;5051977;28;20406;-67
2021/10/16 02:10:37;;;;;;;7.63;6.30;;;10.00;98.20;;;;;;5052491;28;20421;-67
2021/10/16 02:13:04;;;;;;;6.63;5.93;;;9.90;99.00;;;;;;5051850;28;20426;-68
2021/10/16 02:15:29;;;;;;;5.43;5.03;;;9.90;99.10;;;;;;5052337;28;20429;-67
2021/10/16 02:17:55;;;;;;;6.17;5.57;;;9.90;99.10;;;;;;5052320;28;20481;-67
2021/10/16 02:20:21;;;;;;;5.67;5.27;;;9.90;99.00;;;;;;5051584;28;20206;-67
2021/10/16 02:22:46;;;;;;;5.77;5.27;;;10.00;98.50;;;;;;5052740;28;20235;-67
2021/10/16 02:25:12;;;;;;;6.90;5.27;;;9.90;99.10;;;;;;5051483;28;20552;-68
2021/10/16 02:27:38;;;;;;;7.10;4.30;;;9.90;99.20;;;;;;5052473;28;20182;-67
2021/10/16 02:30:04;;;;;;;6.80;4.90;;;9.90;99.00;;;;;;5051837;28;20308;-67
2021/10/16 02:32:30;;;;;;;5.90;5.20;;;9.90;99.00;;;;;;5051142;28;20185;-68
2021/10/16 02:34:55;;;;;;;5.20;4.80;;;9.90;99.10;;;;;;5052183;28;20908;-67
2021/10/16 02:37:21;;;;;;;6.00;4.83;;;9.90;99.20;;;;;;5051366;28;20236;-67
2021/10/16 02:39:47;;;;;;;4.90;4.57;;;9.90;99.20;;;;;;5051477;28;20171;-67
2021/10/16 02:42:13;;;;;;;6.10;5.17;;;9.90;99.40;;;;;;5051345;28;20178;-67
2021/10/16 02:44:39;;;;;;;9.80;5.20;;;9.90;99.30;;;;;;5051856;28;20324;-67
2021/10/16 02:47:05;;;;;;;5.23;4.73;;;9.90;99.40;;;;;;5050765;28;20542;-70
2021/10/16 02:49:30;;;;;;;7.17;5.70;;;10.00;99.00;;;;;;5050365;28;20402;-67
2021/10/16 02:51:56;;;;;;;8.03;5.30;;;9.90;99.40;;;;;;5051842;28;20214;-67
2021/10/16 02:54:22;;;;;;;7.03;5.20;;;10.00;98.80;;;;;;5051046;28;20613;-67
2021/10/16 02:56:48;;;;;;;6.33;5.73;;;10.00;99.70;;;;;;5051510;28;20174;-67
2021/10/16 02:59:14;;;;;;;5.17;4.70;;;10.00;99.60;;;;;;5051045;28;20190;-67
2021/10/16 03:01:39;;;;;;;5.80;5.30;;;10.00;99.50;;;;;;5053699;28;20636;-67
2021/10/16 03:04:05;;;;;;;5.87;4.67;;;10.00;99.20;;;;;;5056223;28;20184;-67
2021/10/16 03:06:31;;;;;;;7.57;5.30;;;10.00;99.00;;;;;;5055043;28;20560;-68
2021/10/16 03:08:57;;;;;;;5.10;4.70;;;9.90;99.00;;;;;;5054614;28;20269;-67
2021/10/16 03:11:23;;;;;;;5.53;5.13;;;10.00;97.90;;;;;;5055234;28;20508;-67
2021/10/16 03:13:48;;;;;;;5.73;5.20;;;9.90;98.50;;;;;;5055754;28;20613;-68
2021/10/16 03:16:16;;;;;;;6.07;5.57;;;10.00;98.20;;;;;;5055098;28;20276;-67
2021/10/16 03:18:45;;;;;;;5.63;5.13;;;9.90;98.90;;;;;;5055861;28;20176;-67
2021/10/16 03:21:11;;;;;;;5.73;5.10;;;9.90;99.70;;;;;;5054633;28;20418;-70
2021/10/16 03:23:37;;;;;;;4.47;4.17;;;9.90;99.60;;;;;;5055334;28;20916;-67
2021/10/16 03:26:03;;;;;;;4.80;4.40;;;9.90;99.00;;;;;;5055728;28;20465;-67
2021/10/16 03:28:29;;;;;;;6.73;4.50;;;9.90;99.00;;;;;;5054238;28;20175;-68
2021/10/16 03:30:55;;;;;;;6.83;4.77;;;9.80;98.90;;;;;;5055715;28;20181;-68
2021/10/16 03:33:21;;;;;;;4.87;4.50;;;9.80;98.90;;;;;;5054716;28;20920;-68
2021/10/16 03:35:46;;;;;;;6.40;4.80;;;9.80;99.10;;;;;;5055331;28;20176;-67
2021/10/16 03:38:12;;;;;;;7.27;4.80;;;9.80;99.20;;;;;;5054770;28;20409;-70
2021/10/16 03:40:38;;;;;;;5.07;4.60;;;9.80;99.40;;;;;;5054774;28;20175;-67
2021/10/16 03:43:04;;;;;;;6.63;5.07;;;9.80;99.90;;;;;;5055169;28;20185;-67
2021/10/16 03:45:29;;;;;;;6.20;5.60;;;9.80;99.90;;;;;;5053744;28;20230;-67
2021/10/16 03:47:55;;;;;;;5.17;4.67;;;9.80;99.90;;;;;;5054201;28;20585;-68
2021/10/16 03:50:21;;;;;;;7.63;5.43;;;9.80;99.90;;;;;;5054090;28;20186;-67
2021/10/16 03:52:46;;;;;;;5.70;5.20;;;9.80;99.80;;;;;;5054052;28;20196;-68
2021/10/16 03:55:12;;;;;;;5.03;4.33;;;9.80;99.90;;;;;;5054297;28;20288;-71
2021/10/16 03:57:38;;;;;;;5.20;4.37;;;9.80;99.90;;;;;;5054743;28;20174;-67
2021/10/16 04:00:05;;;;;;;7.53;4.80;;;9.80;99.40;;;;;;5054817;28;20517;-68
2021/10/16 04:02:31;;;;;;;5.70;4.30;;;9.80;99.10;;;;;;5054565;28;20174;-68
2021/10/16 04:04:56;;;;;;;5.67;5.13;;;9.80;99.10;;;;;;5054639;28;20464;-67
2021/10/16 04:07:22;;;;;;;5.70;5.10;;;9.70;98.70;;;;;;5054233;28;20448;-68
2021/10/16 04:09:48;;;;;;;5.10;4.63;;;9.70;98.50;;;;;;5055122;28;20177;-67
2021/10/16 04:12:13;;;;;;;5.13;4.63;;;9.70;98.50;;;;;;5053407;28;20180;-71
2021/10/16 04:14:39;;;;;;;5.83;4.47;;;9.70;98.70;;;;;;5054360;28;20567;-68
2021/10/16 04:17:05;;;;;;;5.63;4.40;;;9.60;98.40;;;;;;5054161;28;20235;-67
2021/10/16 04:19:31;;;;;;;5.80;4.60;;;9.60;98.50;;;;;;5053668;28;20202;-68
2021/10/16 04:21:57;;;;;;;4.17;3.70;;;9.60;98.60;;;;;;5054607;28;20171;-67
2021/10/16 04:24:22;;;;;;;4.67;4.33;;;9.50;98.70;;;;;;5053578;28;20216;-67
2021/10/16 04:26:49;;;;;;;4.80;4.40;;;9.50;98.50;;;;;;5054592;28;20421;-67
2021/10/16 04:29:14;;;;;;;4.40;4.10;;;9.50;98.40;;;;;;5054055;28;20171;-70
2021/10/16 04:31:40;;;;;;;6.10;4.80;;;9.50;98.40;;;;;;5054031;28;21038;-67
2021/10/16 04:34:06;;;;;;;5.23;4.80;;;9.50;98.40;;;;;;5054353;28;20175;-67
2021/10/16 04:36:32;;;;;;;4.67;4.27;;;9.50;98.40;;;;;;5053659;28;20495;-67
2021/10/16 04:38:59;;;;;;;5.10;4.30;;;9.50;98.30;;;;;;5054460;28;20467;-67
2021/10/16 04:41:25;;;;;;;4.93;4.40;;;9.50;98.20;;;;;;5053023;28;20546;-68
2021/10/16 04:43:50;;;;;;;4.43;4.10;;;9.30;97.90;;;;;;5053781;28;20566;-67
2021/10/16 04:46:16;;;;;;;4.97;4.57;;;9.30;97.90;;;;;;5053224;28;20596;-70
2021/10/16 04:48:43;;;;;;;5.80;4.47;;;9.30;98.40;;;;;;5054019;28;20239;-67
2021/10/16 04:51:12;;;;;;;4.80;4.40;;;9.30;98.70;;;;;;5054239;28;20201;-67
2021/10/16 04:53:39;;;;;;;4.90;4.07;;;9.30;98.60;;;;;;5053608;28;20401;-67
2021/10/16 04:56:05;;;;;;;5.03;4.43;;;9.30;98.60;;;;;;5053840;28;20428;-67
2021/10/16 04:58:31;;;;;;;4.77;4.40;;;9.20;98.60;;;;;;5052649;28;20420;-67
2021/10/16 05:00:56;;;;;;;5.40;4.90;;;9.30;98.80;;;;;;5053356;28;20478;-67
2021/10/16 05:03:22;;;;;;;4.80;4.40;;;9.20;98.80;;;;;;5052550;28;20178;-68
2021/10/16 05:05:48;;;;;;;5.77;4.77;;;9.30;99.40;;;;;;5052024;28;20452;-68
2021/10/16 05:08:14;;;;;;;5.70;5.20;;;9.30;99.20;;;;;;5033672;28;20436;-70
2021/10/16 05:10:40;;;;;;;4.43;4.13;;;9.30;99.30;;;;;;5033478;28;20413;-67
2021/10/16 05:13:06;;;;;;;4.90;4.50;;;9.30;99.50;;;;;;5045083;28;20424;-67
2021/10/16 05:15:32;;;;;;;6.00;4.80;;;9.30;99.50;;;;;;5052846;28;20447;-67
2021/10/16 05:17:58;;;;;;;5.03;4.63;;;9.30;99.40;;;;;;5053887;28;20207;-67
2021/10/16 05:20:24;;;;;;;7.53;4.90;;;9.30;99.60;;;;;;5052282;28;20453;-67
2021/10/16 05:22:49;;;;;;;6.00;4.70;;;9.30;99.90;;;;;;5053313;28;20186;-67
2021/10/16 05:25:15;;;;;;;5.57;5.07;;;9.40;99.90;;;;;;5050927;28;20202;-70
2021/10/16 05:27:42;;;;;;;6.10;5.50;;;9.40;99.90;;;;;;5052848;28;20499;-67
2021/10/16 05:30:09;;;;;;;6.53;4.83;;;9.40;99.90;;;;;;5053461;28;20401;-67
2021/10/16 05:32:35;;;;;;;8.30;5.47;;;9.30;99.70;;;;;;5052652;28;20412;-67
2021/10/16 05:35:01;;;;;;;10.27;4.80;;;9.20;99.90;;;;;;5053398;28;20439;-67
2021/10/16 05:37:27;;;;;;;5.97;5.47;;;9.20;99.90;;;;;;5052566;28;20888;-67
2021/10/16 05:39:53;;;;;;;5.90;5.40;;;9.20;99.90;;;;;;5053385;28;20181;-67
2021/10/16 05:42:18;;;;;;;6.00;5.50;;;9.00;99.90;;;;;;5051477;28;20409;-70
2021/10/16 05:44:44;;;;;;;5.03;4.57;;;8.90;99.90;;;;;;5052580;28;20273;-67
2021/10/16 05:47:10;;;;;;;5.57;4.70;;;8.70;99.90;;;;;;5052611;28;20192;-67
2021/10/16 05:49:36;;;;;;;6.00;5.40;;;8.40;99.90;;;;;;5052113;28;20284;-67
2021/10/16 05:52:02;;;;;;;5.40;4.90;;;8.20;99.90;;;;;;5053066;28;20503;-67
2021/10/16 05:54:28;;;;;;;6.60;5.00;;;8.20;99.90;;;;;;5051270;28;20766;-67
2021/10/16 05:56:53;;;;;;;4.90;4.50;;;8.40;99.90;;;;;;5052822;28;20418;-67
2021/10/16 05:59:19;;;;;;;6.37;5.87;;;8.60;99.90;;;;;;5052195;28;20174;-71
2021/10/16 06:01:45;;;;;;;5.47;5.00;;;8.70;99.90;;;;;;5051825;28;20181;-67
2021/10/16 06:04:11;;;;;;;5.70;5.20;;;8.80;99.90;;;;;;5052628;28;20896;-67
2021/10/16 06:06:36;;;;;;;7.33;6.70;;;8.90;99.90;;;;;;5051387;28;20963;-67
2021/10/16 06:09:02;;;;;;;5.93;5.30;;;9.00;99.90;;;;;;5051648;28;20656;-67
2021/10/16 06:11:28;;;;;;;7.30;5.93;;;9.10;99.90;;;;;;5050879;28;20182;-67
2021/10/16 06:13:54;;;;;;;5.90;4.90;;;9.30;99.90;;;;;;5051176;28;20449;-68
2021/10/16 06:16:20;;;;;;;7.57;4.97;;;9.20;99.90;;;;;;5050921;28;20458;-68
2021/10/16 06:18:45;;;;;;;6.47;5.97;;;9.20;99.90;;;;;;5051637;28;20211;-68
2021/10/16 06:21:12;;;;;;;6.80;5.80;;;9.10;99.90;;;;;;5051402;28;20176;-68
2021/10/16 06:23:38;;;;;;;7.40;5.50;;;8.70;99.90;;;;;;5049598;28;20253;-67
2021/10/16 06:26:04;;;;;;;6.40;5.70;;;8.60;99.90;;;;;;5051348;28;20452;-68
2021/10/16 06:28:31;;;;;;;6.27;5.27;;;8.70;99.90;;;;;;5050799;28;20426;-68
2021/10/16 06:30:56;;;;;;;5.53;5.00;;;8.90;99.90;;;;;;5050923;28;20927;-67
2021/10/16 06:33:24;;;;;;;7.87;5.30;;;8.90;99.90;;;;;;5050458;28;20420;-67
2021/10/16 06:35:52;;;;;;;5.63;4.80;;;9.00;99.90;;;;;;5050635;28;20547;-68
2021/10/16 06:38:18;;;;;;;6.00;5.23;;;9.10;99.90;;;;;;5050567;28;20423;-71
2021/10/16 06:40:44;;;;;;;6.50;5.40;;;9.20;99.90;;;;;;5050798;28;20433;-67
2021/10/16 06:43:09;;;;;;;8.80;5.50;;;9.20;99.90;;;;;;5051023;28;20419;-68
2021/10/16 06:45:35;;;;;;;8.17;6.40;;;9.30;99.90;;;;;;5049752;28;20235;-68
2021/10/16 06:48:03;;;;;;;5.37;4.80;;;9.40;99.90;;;;;;5050778;28;20251;-68
2021/10/16 06:50:28;;;;;;;6.53;5.93;;;9.50;99.90;;;;;;5048257;28;20416;-68
2021/10/16 06:52:54;;;;;;;6.80;5.40;;;9.60;99.90;;;;;;5051656;28;20433;-68
2021/10/16 06:55:20;;;;;;;6.63;5.00;;;9.60;99.90;;;;;;5051688;28;20179;-71
2021/10/16 06:57:45;;;;;;;7.50;5.33;;;9.70;99.90;;;;;;5051649;28;20188;-68
2021/10/16 07:00:11;;;;;;;4.70;4.30;;;9.70;99.90;;;;;;5051141;28;20178;-67
2021/10/16 07:02:37;;;;;;;6.10;4.80;;;9.80;99.90;;;;;;5050445;28;20174;-69
2021/10/16 07:05:03;;;;;;;6.50;5.80;;;9.90;99.90;;;;;;5051511;28;20455;-69
2021/10/16 07:07:29;;;;;;;5.80;5.30;;;10.20;99.90;;;;;;5050625;28;20865;-69
2021/10/16 07:09:55;;;;;;;6.00;4.90;;;10.80;99.90;;;;;;5051971;28;20500;-69
2021/10/16 07:12:22;;;;;;;6.10;5.47;;;11.30;99.90;;;;;;5051278;28;20181;-73
2021/10/16 07:14:48;;;;;;;5.97;4.90;;;11.80;99.90;;;;;;5051767;28;20180;-69
2021/10/16 07:17:14;;;;;;;6.10;5.37;;;12.20;99.90;;;;;;5051876;28;20765;-69
2021/10/16 07:19:40;;;;;;;6.67;5.40;;;12.70;99.90;;;;;;5049985;28;20413;-70
2021/10/16 07:22:06;;;;;;;6.07;4.93;;;13.00;99.50;;;;;;5051887;28;20181;-69
2021/10/16 07:24:31;;;;;;;6.20;5.00;;;13.30;98.40;;;;;;5050830;28;20889;-70
2021/10/16 07:26:57;;;;;;;6.10;5.20;;;13.60;97.10;;;;;;5051237;28;20450;-69
2021/10/16 07:29:23;;;;;;;5.17;4.67;;;13.80;96.00;;;;;;5049968;28;20184;-69
2021/10/16 07:31:53;;;;;;;6.60;5.93;;;13.90;95.40;;;;;;5051401;28;20572;-69
2021/10/16 07:34:20;;;;;;;5.80;5.23;;;13.90;93.70;;;;;;5052098;28;20203;-69
2021/10/16 07:36:47;;;;;;;5.77;5.00;;;13.70;93.00;;;;;;5051772;28;20427;-69
2021/10/16 07:39:13;;;;;;;6.43;4.80;;;13.40;92.90;;;;;;5051457;28;20424;-68
2021/10/16 07:41:39;;;;;;;5.40;4.87;;;13.30;93.20;;;;;;5051087;28;20484;-68
2021/10/16 07:44:06;;;;;;;6.50;4.70;;;13.00;93.30;;;;;;5050984;28;20471;-68
2021/10/16 07:46:32;;;;;;;5.50;4.93;;;12.70;93.60;;;;;;5050753;28;20887;-68
2021/10/16 07:48:58;;;;;;;5.10;4.70;;;12.50;94.40;;;;;;5053361;28;20459;-69
2021/10/16 07:51:24;;;;;;;7.07;4.40;;;12.20;95.10;;;;;;5053340;28;20445;-71
2021/10/16 07:53:50;;;;;;;8.23;4.90;;;12.30;96.80;;;;;;5054905;28;20186;-69
2021/10/16 07:56:16;;;;;;;6.30;4.93;;;12.50;97.20;;;;;;5054905;28;20408;-68
2021/10/16 07:58:42;;;;;;;7.23;5.10;;;12.70;96.80;;;;;;5053871;28;20231;-69
2021/10/16 08:01:09;;;;;;;5.77;4.60;;;13.00;96.50;;;;;;5055090;28;20451;-68
2021/10/16 08:03:36;;;;;;;8.63;5.23;;;13.30;99.90;;;;;;5054050;28;20752;-68
2021/10/16 08:06:05;;;;;;;5.67;5.17;;;13.70;99.90;;;;;;5054237;28;20454;-68
2021/10/16 08:08:31;;;;;;;6.17;5.57;;;13.80;97.70;;;;;;5054217;28;20422;-69
2021/10/16 08:10:57;;;;;;;7.27;5.70;;;14.00;96.70;;;;;;5054839;28;20432;-69
2021/10/16 08:13:25;;;;;;;5.03;4.63;;;14.20;95.80;;;;;;5054268;28;20176;-71
2021/10/16 08:15:51;;;;;;;5.40;4.90;;;14.40;98.50;;;;;;5054713;28;20442;-68
2021/10/16 08:18:17;;;;;;;5.47;5.07;;;14.70;98.40;;;;;;5053580;28;20405;-68
2021/10/16 08:20:42;;;;;;;8.03;5.10;;;14.90;98.70;;;;;;5052765;28;20523;-68
2021/10/16 08:23:08;;;;;;;5.33;4.60;;;15.30;99.20;;;;;;5054721;28;20686;-68
2021/10/16 08:25:34;;;;;;;6.50;5.10;;;15.70;99.60;;;;;;5052513;28;20263;-69
2021/10/16 08:28:10;;;;;;;6.03;5.10;;;15.90;98.00;;;;;;5054273;28;20667;-69
2021/10/16 08:30:38;;;;;;;6.53;5.93;;;16.10;96.00;;;;;;5053917;28;20410;-69
2021/10/16 08:33:04;;;;;;;5.90;5.40;;;16.30;96.50;;;;;;5054456;28;20404;-69
2021/10/16 08:35:29;;;;;;;6.37;5.87;;;16.50;96.20;;;;;;5053002;28;20427;-70
2021/10/16 08:37:55;;;;;;;9.20;6.00;;;16.50;93.70;;;;;;5054027;28;20183;-69
2021/10/16 08:40:24;;;;;;;8.60;5.63;;;16.70;95.10;;;;;;5054349;28;20637;-69
2021/10/16 08:42:49;;;;;;;8.00;5.03;;;16.80;93.70;;;;;;5053528;28;20189;-69
2021/10/16 08:45:15;;;;;;;5.03;4.70;;;16.80;94.00;;;;;;5054018;28;20476;-69
2021/10/16 08:47:42;;;;;;;5.33;4.83;;;17.00;94.30;;;;;;5053516;28;20192;-69
2021/10/16 08:50:09;;;;;;;6.10;5.50;;;17.10;93.40;;;;;;5053883;28;20178;-69
2021/10/16 08:52:36;;;;;;;6.72;5.43;;;17.20;93.50;;;;;;5051867;28;20424;-68
2021/10/16 08:55:02;;;;;;;6.47;5.63;;;17.10;89.50;;;;;;5052398;28;20611;-68
2021/10/16 08:57:31;;;;;;;5.90;5.40;;;16.80;88.20;;;;;;5051760;28;20771;-68
2021/10/16 08:59:58;;;;;;;5.70;5.07;;;16.40;89.20;;;;;;5052129;28;20428;-68
2021/10/16 09:02:36;;;;;;;8.83;5.70;;;16.00;90.60;;;;;;5049034;28;20503;-67
2021/10/16 09:05:13;;;;;;;7.60;5.60;;;15.60;91.00;;;;;;5052407;28;20458;-68
2021/10/16 09:07:39;;;;;;;6.13;5.53;;;15.30;91.40;;;;;;5059928;28;20503;-68
2021/10/16 09:10:22;;;;;;;6.50;5.90;;;15.00;91.60;;;;;;5053844;28;20442;-67
2021/10/16 09:12:47;;;;;;;5.60;5.10;;;14.60;92.20;;;;;;5053100;28;20194;-68
2021/10/16 09:15:24;;;;;;;8.13;6.10;;;14.40;93.00;;;;;;5053931;28;20461;-68
2021/10/16 09:18:19;;;;;;;9.77;5.83;;;14.20;94.00;;;;;;5051117;28;20204;-68
2021/10/16 09:20:45;;;;;;;6.23;5.63;;;14.00;94.20;;;;;;5047902;28;20447;-68
2021/10/16 09:23:10;;;;;;;8.03;5.73;;;13.80;94.90;;;;;;5053595;28;20885;-68
2021/10/16 09:25:36;;;;;;;8.37;5.63;;;13.70;95.30;;;;;;5050414;28;20205;-68
2021/10/16 09:28:16;;;;;;;8.70;6.27;;;13.50;95.50;;;;;;5053483;28;20581;-68
2021/10/16 09:30:48;;;;;;;7.00;5.87;;;13.50;96.40;;;;;;5052297;28;20180;-68
2021/10/16 09:33:14;;;;;;;6.17;5.10;;;13.40;96.90;;;;;;5053189;28;20493;-68
2021/10/16 09:35:40;;;;;;;9.47;5.23;;;13.30;97.50;;;;;;5052250;28;20420;-69
2021/10/16 09:38:07;;;;;;;10.03;5.53;;;13.30;98.20;;;;;;5052539;28;20428;-68
2021/10/16 09:40:38;;;;;;;7.53;6.00;;;13.20;98.30;;;;;;5052177;28;20514;-68
2021/10/16 09:43:21;;;;;;;6.60;5.73;;;13.20;98.70;;;;;;5052645;28;20456;-68
2021/10/16 09:45:47;;;;;;;8.43;5.33;;;13.10;98.00;;;;;;5051957;28;20589;-68
2021/10/16 09:48:33;;;;;;;6.60;5.63;;;13.00;97.90;;;;;;5053218;28;20408;-69
2021/10/16 09:51:00;;;;;;;10.00;5.63;;;13.00;98.40;;;;;;5053561;28;20460;-68
2021/10/16 09:53:26;;;;;;;10.50;5.93;;;13.00;99.40;;;;;;5052780;28;20872;-68
2021/10/16 09:55:53;;;;;;;7.27;6.33;;;13.00;99.50;;;;;;5052000;28;20517;-69
2021/10/16 09:58:24;;;;;;;9.57;6.67;;;13.00;99.90;;;;;;5052594;28;20881;-69
2021/10/16 10:00:52;;;;;;;8.10;6.17;;;13.10;99.90;;;;;;5052009;28;20415;-69
2021/10/16 10:03:26;;;;;;;6.47;5.87;;;13.10;99.90;;;;;;5053071;28;20766;-68
2021/10/16 10:05:52;;;;;;;8.63;6.17;;;13.10;99.90;;;;;;5051836;28;21125;-69
2021/10/16 10:08:19;;;;;;;10.83;6.80;;;13.10;99.90;;;;;;5052403;28;20449;-69
2021/10/16 10:10:47;;;;;;;9.73;8.13;;;13.20;99.90;;;;;;5051228;28;20428;-69
2021/10/16 10:13:15;;;;;;;11.73;7.20;;;13.30;99.90;;;;;;5052576;28;20420;-69
2021/10/16 10:15:42;;;;;;;7.57;6.63;;;13.30;99.90;;;;;;5051799;28;20439;-68
2021/10/16 10:20:58;;;;;;;728.07;504.27;;;13.40;99.90;;;;;;5052501;28;20419;-68
2021/10/16 10:23:25;;;;;;;92.77;58.83;;;13.40;99.90;;;;;;5051977;28;20420;-68
2021/10/16 10:26:21;;;;;;;22.50;15.73;;;13.50;99.90;;;;;;5050801;28;21117;-68
2021/10/16 10:29:00;;;;;;;10.23;8.40;;;13.60;99.90;;;;;;5048180;28;20435;-68
2021/10/16 10:31:44;;;;;;;10.60;7.70;;;13.70;99.90;;;;;;5043870;28;20423;-68
2021/10/16 10:34:14;;;;;;;11.57;8.83;;;13.70;99.90;;;;;;5052371;28;20820;-68
2021/10/16 10:36:45;;;;;;;7.97;7.00;;;13.80;99.90;;;;;;5051764;28;20416;-68
2021/10/16 10:39:33;;;;;;;10.00;7.57;;;13.90;99.90;;;;;;5052162;28;20420;-68
2021/10/16 10:42:13;;;;;;;8.70;6.60;;;14.00;99.30;;;;;;5051801;28;20434;-68
2021/10/16 10:44:59;;;;;;;9.50;6.87;;;14.00;99.10;;;;;;5050371;28;20549;-68
2021/10/16 10:47:32;;;;;;;11.73;7.23;;;14.00;98.60;;;;;;5050693;28;20426;-68
2021/10/16 10:50:00;;;;;;;12.63;7.53;;;14.00;98.50;;;;;;5050726;28;20416;-68
2021/10/16 10:52:28;;;;;;;14.57;7.83;;;14.10;99.40;;;;;;5052153;28;20892;-68
2021/10/16 10:55:06;;;;;;;7.50;6.00;;;14.10;99.30;;;;;;5050115;28;20412;-68
2021/10/16 10:57:45;;;;;;;7.93;6.60;;;14.20;99.10;;;;;;5051660;28;20396;-71
2021/10/16 11:00:12;;;;;;;9.60;6.97;;;14.30;98.60;;;;;;5051550;28;20939;-69
2021/10/16 11:02:38;;;;;;;13.60;7.30;;;14.40;98.50;;;;;;5050836;28;20436;-68
2021/10/16 11:05:34;;;;;;;11.10;6.37;;;14.40;99.00;;;;;;5047877;28;20460;-68
2021/10/16 11:08:09;;;;;;;13.03;6.07;;;14.50;99.20;;;;;;5049611;28;20532;-68
2021/10/16 11:10:34;;;;;;;8.87;5.53;;;14.50;99.20;;;;;;5050352;28;20412;-71
2021/10/16 11:13:14;;;;;;;11.87;5.90;;;14.60;97.70;;;;;;5049742;28;20440;-69
2021/10/16 11:15:41;;;;;;;9.10;4.97;;;14.60;97.30;;;;;;5051052;28;20450;-69
2021/10/16 11:18:12;;;;;;;8.13;5.40;;;14.60;96.20;;;;;;5051539;28;20448;-68
2021/10/16 11:20:39;;;;;;;10.70;4.63;;;14.60;96.90;;;;;;5049910;28;20881;-69
2021/10/16 11:23:06;;;;;;;6.13;4.23;;;14.80;96.80;;;;;;5053763;28;20422;-69
2021/10/16 11:25:34;;;;;;;7.50;4.67;;;15.10;95.30;;;;;;5054240;28;20472;-68
2021/10/16 11:28:13;;;;;;;5.60;4.37;;;15.40;95.80;;;;;;5055318;28;20467;-68
2021/10/16 11:30:44;;;;;;;7.43;4.70;;;15.70;94.70;;;;;;5054456;28;20534;-68
2021/10/16 11:33:21;;;;;;;5.20;4.63;;;16.00;93.30;;;;;;5055228;28;20779;-68
2021/10/16 11:35:49;;;;;;;6.40;5.57;;;16.20;92.40;;;;;;5054975;28;20800;-69
2021/10/16 11:38:20;;;;;;;5.73;3.90;;;16.50;93.10;;;;;;5055386;28;20903;-69
2021/10/16 11:40:46;;;;;;;7.63;4.27;;;16.80;91.80;;;;;;5054257;28;20548;-68
2021/10/16 11:43:18;;;;;;;4.80;4.00;;;17.10;91.80;;;;;;5055322;28;20412;-68
2021/10/16 11:45:45;;;;;;;6.27;3.93;;;17.20;86.70;;;;;;5054160;28;20482;-69
2021/10/16 11:48:13;;;;;;;4.20;3.67;;;17.40;88.50;;;;;;5054256;28;20455;-68
2021/10/16 11:50:48;;;;;;;6.63;4.43;;;17.50;89.20;;;;;;5053698;28;20431;-70
2021/10/16 11:53:24;;;;;;;5.17;4.30;;;17.50;83.10;;;;;;5052706;28;20467;-69
2021/10/16 11:56:00;;;;;;;6.97;4.50;;;17.40;77.20;;;;;;5053158;28;20466;-69
2021/10/16 11:58:28;;;;;;;9.77;4.60;;;17.40;79.60;;;;;;5054460;28;20957;-68
2021/10/16 12:00:59;;;;;;;6.63;3.60;;;17.30;78.90;;;;;;5054170;28;20836;-68
2021/10/16 12:03:40;;;;;;;8.50;4.70;;;17.10;80.60;;;;;;5054631;28;20424;-68
2021/10/16 12:06:17;;;;;;;5.03;3.50;;;17.10;79.30;;;;;;5055024;28;20455;-69
2021/10/16 12:08:48;;;;;;;6.07;4.20;;;16.60;78.10;;;;;;5054829;28;20388;-69
2021/10/16 12:11:23;;;;;;;5.97;4.00;;;16.50;79.70;;;;;;5055510;28;20404;-68
2021/10/16 12:14:12;;;;;;;6.23;3.90;;;16.50;80.80;;;;;;5054391;28;20958;-68
2021/10/16 12:16:46;;;;;;;10.20;4.47;;;16.40;81.40;;;;;;5054767;28;20418;-69
2021/10/16 12:19:16;;;;;;;7.97;4.80;;;16.20;79.60;;;;;;5055462;28;20914;-68
2021/10/16 12:21:47;;;;;;;8.60;4.20;;;16.10;81.80;;;;;;5054475;28;20506;-68
2021/10/16 12:24:23;;;;;;;4.67;3.57;;;16.00;80.40;;;;;;5055289;28;20401;-68
2021/10/16 12:27:06;;;;;;;5.03;3.80;;;15.90;82.90;;;;;;5054106;28;20506;-68
2021/10/16 12:29:34;;;;;;;8.40;3.50;;;15.90;83.80;;;;;;5053537;28;20871;-68
2021/10/16 12:32:00;;;;;;;10.70;4.60;;;15.80;84.70;;;;;;5054607;28;20462;-68
2021/10/16 12:34:30;;;;;;;7.83;4.13;;;15.80;84.60;;;;;;5054386;28;20419;-68
2021/10/16 12:37:05;;;;;;;9.03;4.50;;;15.80;86.20;;;;;;5054232;28;20861;-68
2021/10/16 12:39:35;;;;;;;4.50;3.87;;;15.70;87.00;;;;;;5054773;28;20450;-68
2021/10/16 12:42:15;;;;;;;8.50;4.10;;;15.70;86.30;;;;;;5054159;28;20490;-67
2021/10/16 12:44:51;;;;;;;6.83;4.37;;;15.70;86.60;;;;;;5053907;28;20557;-68
2021/10/16 12:47:19;;;;;;;5.47;3.40;;;15.60;86.60;;;;;;5054677;28;20424;-67
2021/10/16 12:49:58;;;;;;;7.17;3.63;;;15.60;87.10;;;;;;5052581;28;20839;-67
2021/10/16 12:52:45;;;;;;;8.13;4.17;;;15.50;86.40;;;;;;5054534;28;20526;-66
2021/10/16 12:55:14;;;;;;;5.83;3.87;;;15.50;86.80;;;;;;5054572;28;20748;-67
2021/10/16 12:58:06;;;;;;;6.83;4.20;;;15.50;87.60;;;;;;5052737;28;20762;-67